Terminal Aerodrome Forecast
Issued by NWS Atlanta, GA

Home | Current Version | Previous Version | Text Only | Print | Product List | Glossary On
Versions: 1 2 3 4 5 6 7 8 9 10 11 12 13 14 15 16 17 18 19 20 21 22 23 24 25 26 27 28 29 30 31 32 33 34 35 36 37
000
FTUS42 KFFC 230558
TAFAHN
TAF
KAHN 230558Z 2306/2406 00000KT P6SM FEW003 BKN110
     FM230800 00000KT P6SM OVC009
     FM231000 00000KT 3SM BR OVC005
     FM231400 VRB03KT P6SM OVC008
     FM231800 VRB03KT P6SM SHRA BKN030 PROB30 2318/2324 4SM -TSRA
      OVC025CB
     FM240100 00000KT P6SM BKN040=

USA.gov is the U.S. government's official web portal to all federal, state and local government web resources and services.